Latest Weather Observations for Liawenee

IDT60801

Issued at 9:02 pm EDT Monday 26 January 2015 (issued every 30 minutes, with the page automatically refreshed every 10 minutes)

About weather observations | Map of weather stations | Latest weather observations for TAS | Other Formats
Station Details ID: 096033 Name: LIAWENEE Lat: -41.90 Lon: 146.67 Height: 1057.0 m
Data from the previous 72 hours. | See also: Recent months at Liawenee
Date/Time
EDT
Temp
°C
App
Temp
°C
Dew
Point
Rel
Hum
%
Delta-T
°C
Wind Press
QNH
hPa
Press
MSL
hPa
Rain
since 9 am
mm
Dir
 
Spd
km/h
Gust
km/h
Spd
kts
Gust
kts
26/09:00pm 4.2 0.2 0.7 78 1.4 WSW 11 13 6 7 1016.1 1013.8 0.0
26/08:30pm 5.7 2.2 1.1 72 1.9 SW 9 13 5 7 1016.1 1013.8 0.0
26/08:00pm 8.6 4.0 1.7 62 3.0 SW 15 20 8 11 1015.6 1013.3 0.0
26/07:30pm 9.8 4.8 1.2 55 3.8 SW 17 20 9 11 1015.4 1013.1 0.0
26/07:00pm 11.1 6.8 1.1 50 4.4 WSW 13 19 7 10 1015.2 1012.9 0.0
26/06:30pm 11.2 6.9 0.9 49 4.6 SW 13 24 7 13 1014.9 1012.5 0.0
26/06:00pm 11.5 6.3 2.3 53 4.2 SW 19 24 10 13 1014.7 1012.4 0.0
26/05:30pm 11.6 6.3 1.8 51 4.4 SW 19 30 10 16 1014.7 1012.4 0.0
26/05:00pm 11.8 7.0 2.8 54 4.2 SW 17 28 9 15 1015.0 1012.6 0.0
26/04:30pm 11.9 5.8 2.6 53 4.3 SW 24 32 13 17 1014.7 1012.4 0.0
26/04:00pm 12.8 7.1 2.9 51 4.6 SW 22 33 12 18 1014.9 1012.5 0.0
26/03:30pm 11.9 4.5 1.8 50 4.6 WSW 30 41 16 22 1014.2 1011.8 0.0
26/03:00pm 12.2 6.0 2.1 50 4.6 SW 24 33 13 18 1014.5 1012.2 0.0
26/02:30pm 11.7 4.6 1.6 50 4.6 SW 28 39 15 21 1014.4 1012.1 0.0
26/02:00pm 11.6 4.0 2.9 55 4.0 SW 32 43 17 23 1014.3 1012.0 0.0
26/01:30pm 10.9 4.0 2.5 56 3.8 SW 28 41 15 22 1014.4 1012.1 0.0
26/01:00pm 9.9 3.8 3.0 62 3.2 SW 24 35 13 19 1014.4 1012.1 0.0
26/12:30pm 10.1 4.9 2.5 59 3.5 SW 19 28 10 15 1014.3 1012.0 0.0
26/12:00pm 9.9 3.5 3.4 64 3.0 WSW 26 35 14 19 1014.3 1012.0 0.0
26/11:30am 8.6 2.2 3.2 69 2.5 WSW 26 32 14 17 1014.1 1011.7 0.0
26/11:00am 7.8 0.4 4.2 78 1.7 WSW 32 41 17 22 1014.0 1011.6 0.0
26/10:30am 7.6 2.2 2.3 69 2.3 WSW 20 33 11 18 1013.6 1011.3 0.0
26/10:00am 6.7 0.0 1.6 70 2.2 WSW 26 33 14 18 1013.3 1010.9 0.0
26/09:30am 6.7 -0.3 2.2 73 2.0 WSW 28 35 15 19 1013.1 1010.7 0.0
26/09:00am 5.9 -1.1 1.8 75 1.8 WSW 28 35 15 19 1012.6 1010.3 0.4
26/08:30am 5.4 -1.7 1.3 75 1.7 WSW 28 37 15 20 1012.2 1009.8 0.4
26/08:00am 5.1 -1.9 1.8 79 1.4 WSW 28 37 15 20 1011.5 1009.1 0.4
26/07:30am 4.1 -1.8 1.5 83 1.1 WSW 22 30 12 16 1011.2 1008.8 0.4
26/07:00am 3.1 -3.6 1.3 88 0.7 WSW 26 33 14 18 1010.6 1008.2 0.4
26/06:30am 1.5 -3.6 0.5 93 0.4 WSW 17 20 9 11 1010.2 1007.8 0.4
26/06:00am 2.3 -3.8 0.7 89 0.6 WSW 22 32 12 17 1009.9 1007.4 0.4
26/05:30am 2.5 -4.2 1.2 91 0.5 WSW 26 32 14 17 1009.2 1006.7 0.4
26/05:00am 2.8 -2.8 1.0 88 0.7 WSW 20 26 11 14 1008.6 1006.2 0.4
26/04:30am 3.1 -2.9 0.8 85 0.9 W 22 28 12 15 1008.2 1005.7 0.4
26/04:00am 3.1 -2.5 1.2 87 0.8 WSW 20 28 11 15 1007.9 1005.4 0.4
26/03:30am 2.8 -3.6 1.0 88 0.7 WSW 24 35 13 19 1007.5 1005.0 0.4
26/03:00am 2.8 -3.6 0.9 87 0.8 WSW 24 32 13 17 1007.1 1004.6 0.4
26/02:30am 2.7 -4.1 1.1 89 0.7 WSW 26 35 14 19 1006.9 1004.4 0.4
26/02:00am 1.9 -3.8 0.3 89 0.6 WSW 20 30 11 16 1006.4 1003.9 0.4
26/01:30am 2.6 -3.8 0.8 88 0.7 WSW 24 37 13 20 1006.3 1003.8 0.4
26/01:00am 2.2 -5.8 0.3 87 0.8 WSW 32 44 17 24 1006.0 1003.5 0.4
26/12:30am 2.1 -5.1 0.5 89 0.6 W 28 37 15 20 1006.0 1003.5 0.4
26/12:00am 2.0 -4.9 0.2 88 0.7 W 26 41 14 22 1005.4 1002.9 0.4
 
Date/Time
EDT
Temp
°C
App
Temp
°C
Dew
Point
Rel
Hum
%
Delta-T
°C
Wind Press
QNH
hPa
Press
MSL
hPa
Rain
since 9 am
mm
Dir
 
Spd
km/h
Gust
km/h
Spd
kts
Gust
kts
25/11:30pm 2.0 -4.9 0.1 87 0.8 W 26 39 14 21 1005.5 1003.0 0.4
25/11:00pm 1.7 -4.9 -0.2 87 0.7 WSW 24 35 13 19 1005.3 1002.8 0.4
25/10:30pm 1.9 -5.4 -0.2 86 0.8 WSW 28 41 15 22 1005.0 1002.4 0.4
25/10:00pm 2.2 -4.7 0.4 88 0.7 WSW 26 37 14 20 1005.1 1002.6 0.4
25/09:30pm 2.4 -3.3 0.3 86 0.8 WSW 20 33 11 18 1005.0 1002.4 0.4
25/09:00pm 2.3 -3.2 0.7 89 0.7 WSW 19 26 10 14 1004.5 1002.0 0.4
25/08:30pm 2.8 -4.0 0.9 87 0.8 W 26 35 14 19 1004.4 1001.9 0.4
25/08:00pm 3.1 -3.7 0.8 85 0.9 WSW 26 35 14 19 1004.0 1001.4 0.4
25/07:30pm 3.8 -3.6 2.0 88 0.8 WSW 30 43 16 23 1003.3 1000.7 0.4
25/07:00pm 4.4 -4.0 1.4 81 1.3 W 35 46 19 25 1002.8 1000.2 0.4
25/06:30pm 5.4 -2.2 2.6 82 1.2 W 32 50 17 27 1002.3 999.7 0.4
25/06:22pm 5.1 -2.0 3.3 88 0.8 W 30 50 16 27 1002.3 999.7 0.4
25/06:00pm 4.3 -3.6 2.5 88 0.8 WSW 33 46 18 25 1002.1 999.5 0.2
25/05:30pm 6.2 -3.4 1.1 70 2.2 W 41 56 22 30 1001.9 999.3 0.2
25/05:11pm 6.5 -1.3 2.8 77 1.6 W 33 52 18 28 1001.9 999.3 0.2
25/05:00pm 5.7 -1.9 3.9 88 0.8 WSW 33 43 18 23 1001.9 999.3 0.2
25/04:30pm 7.3 -0.3 2.6 72 2.1 WSW 32 50 17 27 1001.2 998.6 0.0
25/04:00pm 8.6 0.5 3.4 70 2.4 W 35 46 19 25 1000.9 998.2 0.0
25/03:42pm 9.2 1.0 2.5 63 3.0 W 35 54 19 29 1001.0 998.4 0.0
25/03:30pm 8.2 -0.2 3.7 73 2.1 W 37 50 20 27 1000.9 998.2 0.0
25/03:06pm 5.9 -1.1 4.2 89 0.8 W 30 48 16 26 1001.0 998.4 0.0
25/03:00pm 5.2 -2.9 3.1 86 0.9 W 35 48 19 26 1001.2 998.6 0.0
25/02:30pm 8.1 -1.0 1.7 64 2.8 W 39 54 21 29 1000.9 998.2 0.0
25/02:19pm 9.9 2.4 3.4 64 3.0 W 32 50 17 27 1000.7 998.0 0.0
25/02:00pm 7.3 -1.4 3.9 79 1.6 W 39 54 21 29 1000.6 997.9 0.0
25/01:40pm 9.0 1.2 1.9 61 3.2 W 32 52 17 28 1000.3 997.7 0.0
25/01:30pm 9.1 2.3 2.9 65 2.8 W 28 43 15 23 1000.2 997.6 0.0
25/01:00pm 6.7 -0.4 3.5 80 1.5 W 30 44 16 24 1000.4 997.8 0.0
25/12:30pm 8.1 0.8 2.6 68 2.5 W 30 39 16 21 1000.3 997.7 0.0
25/12:04pm 10.2 2.9 2.6 59 3.5 W 30 48 16 26 999.8 997.1 0.0
25/12:00pm 10.1 2.7 3.8 65 3.0 W 32 48 17 26 999.8 997.1 0.0
25/11:30am 9.7 2.3 4.1 68 2.6 W 32 48 17 26 999.6 996.9 0.0
25/11:00am 8.4 1.3 3.3 70 2.3 W 30 41 16 22 999.7 997.0 0.0
25/10:30am 7.0 -0.5 3.4 78 1.6 WSW 32 39 17 21 999.9 997.2 0.0
25/10:00am 5.8 -1.0 3.1 83 1.2 WSW 28 35 15 19 1000.0 997.3 0.0
25/09:30am 5.8 -0.4 4.1 89 0.8 WSW 26 33 14 18 999.7 997.0 0.0
25/09:00am 5.1 -1.6 3.8 91 0.6 WSW 28 39 15 21 999.5 996.8 4.0
25/08:30am 5.4 -0.4 4.5 94 0.4 WSW 24 33 13 18 998.2 995.5 4.0
25/08:00am 5.0 0.7 3.3 89 0.8 WNW 15 24 8 13 999.0 996.3 4.0
25/07:30am 4.4 -1.3 2.9 90 0.7 WNW 22 35 12 19 998.9 996.2 3.2
25/07:00am 5.0 -2.6 4.0 93 0.5 W 33 56 18 30 999.0 996.3 2.4
25/06:53am 5.2 -1.4 4.2 93 0.5 W 28 46 15 25 999.0 996.3 1.8
25/06:30am 6.0 -0.9 4.8 92 0.6 WSW 30 43 16 23 998.9 996.2 1.2
25/06:00am 7.0 1.5 5.8 92 0.6 W 24 30 13 16 998.8 996.1 0.4
25/05:30am 8.5 2.3 6.0 84 1.2 W 28 39 15 21 998.2 995.5 0.0
25/05:00am 9.2 4.2 6.5 83 1.3 WNW 22 33 12 18 997.9 995.2 0.0
25/04:34am 9.6 3.5 6.7 82 1.4 WNW 28 46 15 25 997.9 995.2 0.0
25/04:30am 9.6 3.5 6.7 82 1.4 WNW 28 43 15 23 997.9 995.2 0.0
25/04:12am 9.8 3.8 6.9 82 1.5 WNW 28 48 15 26 997.9 995.2 0.0
25/04:00am 9.9 4.3 7.2 83 1.4 NW 26 44 14 24 997.9 995.2 0.0
25/03:30am 9.6 2.9 7.4 86 1.1 WNW 32 50 17 27 997.9 995.2 0.0
25/03:05am 9.4 2.6 7.0 85 1.2 WNW 32 50 17 27 998.0 995.3 0.0
25/03:00am 9.3 2.3 6.9 85 1.2 WNW 33 48 18 26 998.1 995.4 0.0
25/02:30am 9.1 2.0 6.2 82 1.4 NW 33 52 18 28 998.6 995.9 0.0
25/02:00am 8.8 2.2 5.9 82 1.4 NW 30 48 16 26 999.3 996.7 0.0
25/01:37am 8.7 2.4 5.8 82 1.4 WNW 28 46 15 25 999.8 997.1 0.0
25/01:30am 8.6 2.3 5.7 82 1.4 WNW 28 41 15 22 999.9 997.2 0.0
25/01:00am 8.8 2.8 5.5 80 1.6 NW 26 41 14 22 1000.3 997.7 0.0
25/12:37am 9.4 3.2 6.1 80 1.6 NW 28 48 15 26 1000.9 998.2 0.0
25/12:30am 9.1 3.6 5.8 80 1.6 NW 24 35 13 19 1001.0 998.4 0.0
25/12:00am 9.2 4.4 5.6 78 1.8 NW 20 37 11 20 1001.3 998.7 0.0
 
Date/Time
EDT
Temp
°C
App
Temp
°C
Dew
Point
Rel
Hum
%
Delta-T
°C
Wind Press
QNH
hPa
Press
MSL
hPa
Rain
since 9 am
mm
Dir
 
Spd
km/h
Gust
km/h
Spd
kts
Gust
kts
24/11:31pm 9.8 3.4 5.2 73 2.2 NW 28 48 15 26 1001.9 999.3 0.0
24/11:30pm 9.8 3.8 5.2 73 2.2 NW 26 48 14 26 1001.9 999.3 0.0
24/11:01pm 10.2 4.0 6.0 75 2.1 WNW 28 50 15 27 1001.9 999.3 0.0
24/11:00pm 10.2 4.3 6.0 75 2.1 WNW 26 44 14 24 1001.9 999.3 0.0
24/10:50pm 10.3 4.0 5.9 74 2.2 NW 28 50 15 27 1002.2 999.6 0.0
24/10:30pm 10.0 5.3 6.2 77 1.9 NNW 20 39 11 21 1002.3 999.7 0.0
24/10:00pm 10.4 5.9 6.2 75 2.1 NW 19 33 10 18 1002.6 999.9 0.0
24/09:30pm 10.4 6.2 5.8 73 2.3 NW 17 30 9 16 1002.7 1000.1 0.0
24/09:00pm 10.6 6.1 6.2 74 2.2 NW 19 35 10 19 1002.6 999.9 0.0
24/08:30pm 11.1 7.1 6.6 74 2.3 WNW 17 26 9 14 1002.4 999.8 0.0
24/08:00pm 11.5 8.1 7.6 77 2.0 NNW 15 28 8 15 1002.3 999.7 0.0
24/07:30pm 12.0 8.2 7.7 75 2.2 NNW 17 28 9 15 1002.1 999.5 0.0
24/07:00pm 12.5 8.3 7.6 72 2.5 NNW 19 30 10 16 1001.7 999.0 0.0
24/06:30pm 13.7 9.4 7.9 68 3.0 NNW 20 30 11 16 1001.7 999.0 0.0
24/06:00pm 14.9 10.8 8.8 67 3.3 NNW 20 35 11 19 1001.7 999.0 0.0
24/05:30pm 14.9 10.9 8.4 65 3.5 NNW 19 30 10 16 1001.8 999.2 0.0
24/05:00pm 15.1 10.9 7.6 61 4.0 NNW 19 28 10 15 1002.6 999.9 0.0
24/04:30pm 15.7 11.7 8.2 61 4.0 NNW 19 33 10 18 1002.6 999.9 0.0
24/04:00pm 15.4 11.2 8.2 62 3.9 NNW 20 33 11 18 1002.7 1000.1 0.0
24/03:30pm 15.8 11.4 7.3 57 4.5 NNW 20 32 11 17 1003.1 1000.5 0.0
24/03:00pm 15.4 10.7 5.9 53 4.9 NNW 20 33 11 18 1003.1 1000.5 0.0
24/02:30pm 15.1 10.7 7.4 60 4.0 N 20 32 11 17 1003.4 1000.9 0.0
24/02:00pm 14.5 10.0 6.3 58 4.2 NNW 19 33 10 18 1004.0 1001.4 0.0
24/01:30pm 15.4 11.2 5.9 53 4.8 NW 17 32 9 17 1004.0 1001.4 0.0
24/01:00pm 14.3 9.9 6.6 60 4.0 N 19 30 10 16 1004.3 1001.8 0.0
24/12:30pm 13.7 9.0 5.1 56 4.3 NNW 19 33 10 18 1004.4 1001.9 0.0
24/12:00pm 14.3 9.9 4.6 52 4.8 NNW 17 32 9 17 1004.8 1002.2 0.0
24/11:30am 13.4 8.0 1.1 43 5.6 NNW 19 30 10 16 1004.7 1002.1 0.0
24/11:00am 13.4 7.8 0.1 40 5.9 N 19 30 10 16 1004.5 1002.0 0.0
24/10:30am 12.2 6.3 -2.0 37 6.0 N 19 32 10 17 1004.9 1002.3 0.0
24/10:00am 11.2 5.7 0.9 49 4.6 N 19 30 10 16 1005.1 1002.6 0.0
24/09:30am 10.5 5.0 1.9 55 3.9 N 20 35 11 19 1005.2 1002.7 0.0
24/09:00am 9.5 3.0 2.4 61 3.2 N 26 37 14 20 1005.1 1002.6 0.0
24/08:30am 9.1 3.2 3.9 70 2.4 N 24 43 13 23 1005.2 1002.7 0.0
24/08:00am 8.1 2.3 4.3 77 1.8 N 24 39 13 21 1004.8 1002.2 0.0
24/07:32am 7.6 1.0 4.4 80 1.5 N 28 46 15 25 1004.9 1002.3 0.0
24/07:30am 7.6 1.5 4.6 81 1.4 N 26 43 14 23 1004.9 1002.3 0.0
24/07:00am 6.8 1.0 4.5 85 1.1 N 24 39 13 21 1005.1 1002.6 0.0
24/06:30am 6.6 1.6 4.6 87 0.9 N 20 37 11 20 1004.9 1002.3 0.0
24/06:00am 6.8 2.0 4.8 87 0.9 N 19 28 10 15 1004.8 1002.2 0.0
24/05:30am 7.1 2.4 5.1 87 0.9 N 19 35 10 19 1004.9 1002.3 0.0
24/05:00am 6.7 3.5 5.0 89 0.8 NNE 11 20 6 11 1004.8 1002.2 0.0
24/04:30am 6.7 3.7 5.8 94 0.4 NNE 11 19 6 10 1005.1 1002.6 0.0
24/04:00am 7.1 3.7 6.0 93 0.5 NNE 13 20 7 11 1005.5 1003.0 0.0
24/03:30am 7.4 4.8 6.2 92 0.6 N 9 20 5 11 1006.0 1003.5 0.0
24/03:00am 6.9 3.8 5.7 92 0.6 NE 11 15 6 8 1006.3 1003.8 0.0
24/02:30am 7.2 3.4 5.7 90 0.7 NNE 15 28 8 15 1006.9 1004.4 0.0
24/02:00am 7.5 4.1 6.1 91 0.7 NNE 13 19 7 10 1006.9 1004.4 0.0
24/01:30am 7.6 4.3 6.5 93 0.5 NE 13 26 7 14 1007.0 1004.5 0.0
24/01:00am 7.7 3.7 6.6 93 0.5 ENE 17 20 9 11 1007.4 1004.9 0.0
24/12:30am 7.8 3.2 6.6 92 0.6 NE 20 26 11 14 1007.5 1005.0 0.0
24/12:00am 7.9 2.5 6.5 91 0.7 NE 24 33 13 18 1007.4 1004.9 0.0
 
Date/Time
EDT
Temp
°C
App
Temp
°C
Dew
Point
Rel
Hum
%
Delta-T
°C
Wind Press
QNH
hPa
Press
MSL
hPa
Rain
since 9 am
mm
Dir
 
Spd
km/h
Gust
km/h
Spd
kts
Gust
kts
23/11:30pm 8.1 2.8 6.7 91 0.7 NE 24 33 13 18 1007.5 1005.0 0.0
23/11:24pm 7.9 3.4 7.1 95 0.4 NNE 20 30 11 16 1007.5 1005.0 0.0
23/11:00pm 2.8 1.0 0.9 87 0.8 CALM 0 0 0 0 1007.8 1005.3 0.0
23/10:30pm 4.3 2.7 2.2 86 0.9 CALM 0 0 0 0 1007.8 1005.3 0.0
23/10:00pm 5.3 3.3 2.5 82 1.2 NNW 2 6 1 3 1007.7 1005.2 0.0
23/09:30pm 6.6 3.4 3.0 78 1.6 WNW 9 11 5 6 1007.4 1004.9 0.0

Other Formats:

Comma delimited format used in spreadsheet applications
http://www.bom.gov.au/fwo/IDT60801/IDT60801.95959.axf

JavaScript Object Notation format (JSON) in row-major order
http://www.bom.gov.au/fwo/IDT60801/IDT60801.95959.json